createdAt,value
2022-09-15T00:01:54.610Z,83.28
2022-09-15T00:04:56.871Z,84.19
2022-09-15T00:07:58.884Z,85.20
2022-09-15T00:11:11.182Z,85.36
2022-09-15T00:14:13.201Z,85.71
2022-09-15T00:17:15.656Z,87.12
2022-09-15T00:20:19.662Z,86.47
2022-09-15T00:23:21.908Z,87.28
2022-09-15T00:26:26.061Z,86.32
2022-09-15T00:29:28.475Z,86.41
2022-09-15T00:32:30.732Z,86.94
2022-09-15T00:35:37.020Z,87.31
2022-09-15T00:38:39.345Z,87.85
2022-09-15T00:41:41.860Z,87.10
2022-09-15T00:44:56.499Z,87.45
2022-09-15T00:47:58.974Z,87.23
2022-09-15T00:51:03.070Z,87.78
2022-09-15T00:54:11.327Z,86.97
2022-09-15T00:57:26.228Z,86.88
2022-09-15T01:00:29.109Z,86.23
2022-09-15T01:03:33.173Z,87.83
2022-09-15T01:06:44.335Z,88.24
2022-09-15T01:09:52.309Z,86.91
2022-09-15T01:13:01.497Z,86.30
2022-09-15T01:20:23.610Z,86.95
2022-09-15T01:24:03.298Z,86.76
2022-09-15T01:27:30.906Z,88.06
2022-09-15T01:30:37.388Z,88.75
2022-09-15T01:34:00.112Z,87.32
2022-09-15T01:37:10.517Z,87.42
2022-09-15T01:40:13.258Z,87.18
2022-09-15T01:43:17.033Z,88.45
2022-09-15T01:46:21.807Z,88.15
2022-09-15T01:49:31.444Z,89.20
2022-09-15T01:52:33.852Z,88.85
2022-09-15T01:55:43.321Z,88.07
2022-09-15T01:58:45.701Z,86.85
2022-09-15T02:02:10.086Z,87.45
2022-09-15T02:05:25.740Z,87.54
2022-09-15T02:08:37.516Z,89.61
2022-09-15T02:11:47.749Z,89.26
2022-09-15T02:14:57.635Z,88.46
2022-09-15T02:18:03.258Z,88.70
2022-09-15T02:21:22.512Z,89.13
2022-09-15T02:24:37.280Z,88.37
2022-09-15T02:27:49.944Z,88.03
2022-09-15T02:30:54.305Z,89.14
2022-09-15T02:34:03.663Z,89.42
2022-09-15T02:37:06.891Z,89.57
2022-09-15T02:40:09.520Z,89.08
2022-09-15T02:43:14.846Z,88.39
2022-09-15T02:46:19.115Z,89.70
2022-09-15T02:49:21.500Z,89.54
2022-09-15T02:52:23.833Z,88.58
2022-09-15T02:55:29.085Z,88.81
2022-09-15T02:58:31.320Z,91.60
2022-09-15T03:01:35.035Z,91.33
2022-09-15T03:04:37.146Z,91.56
2022-09-15T03:07:40.755Z,91.54
2022-09-15T03:10:42.711Z,91.39
2022-09-15T03:13:45.545Z,90.51
2022-09-15T03:16:47.759Z,90.05
2022-09-15T03:19:50.779Z,90.86
2022-09-15T03:22:52.771Z,91.10
2022-09-15T03:25:55.450Z,90.74
2022-09-15T03:28:57.515Z,89.74
2022-09-15T03:31:59.702Z,89.53
2022-09-15T03:35:02.114Z,90.03
2022-09-15T03:38:04.408Z,89.77
2022-09-15T03:41:08.739Z,91.42
2022-09-15T03:44:10.979Z,91.13
2022-09-15T03:47:13.138Z,91.59
2022-09-15T03:50:15.397Z,90.74
2022-09-15T03:53:18.207Z,90.93
2022-09-15T03:56:27.390Z,91.65
2022-09-15T03:59:29.421Z,91.72
2022-09-15T04:02:31.681Z,91.79
2022-09-15T04:05:34.169Z,90.82
2022-09-15T04:08:36.615Z,90.46
2022-09-15T04:11:39.595Z,90.00
2022-09-15T04:14:42.220Z,89.68
2022-09-15T04:17:44.257Z,90.02
2022-09-15T04:20:46.472Z,91.50
2022-09-15T04:23:48.668Z,90.35
2022-09-15T04:26:50.906Z,89.54
2022-09-15T04:29:53.435Z,88.68
2022-09-15T04:32:55.744Z,88.33
2022-09-15T04:36:06.305Z,88.50
2022-09-15T04:39:08.774Z,87.96
2022-09-15T04:42:10.724Z,87.94
2022-09-15T04:45:12.973Z,88.13
2022-09-15T04:48:14.975Z,88.21
2022-09-15T04:51:19.998Z,88.26
2022-09-15T04:54:21.905Z,88.44
2022-09-15T04:57:24.077Z,88.09
2022-09-15T05:00:27.035Z,89.08
2022-09-15T05:03:29.333Z,88.30
2022-09-15T05:06:32.243Z,88.57
2022-09-15T05:09:34.589Z,88.72
2022-09-15T05:12:36.606Z,90.40
2022-09-15T05:15:38.955Z,90.19
2022-09-15T05:18:42.284Z,89.67
2022-09-15T05:21:45.218Z,90.27
2022-09-15T05:24:47.378Z,91.27
2022-09-15T05:27:49.590Z,91.99
2022-09-15T05:30:55.715Z,93.08
2022-09-15T05:34:00.526Z,94.16
2022-09-15T05:37:03.018Z,95.03
2022-09-15T05:40:08.599Z,94.43
2022-09-15T05:43:11.373Z,94.73
2022-09-15T05:46:14.320Z,94.50
2022-09-15T05:49:16.458Z,94.21
2022-09-15T05:52:18.758Z,95.27
2022-09-15T05:55:20.772Z,95.48
2022-09-15T05:58:23.412Z,95.52
2022-09-15T06:01:28.161Z,94.56
2022-09-15T06:04:30.948Z,95.27
2022-09-15T06:07:33.057Z,94.51
2022-09-15T06:10:36.566Z,94.64
2022-09-15T06:13:39.006Z,93.36
2022-09-15T06:16:41.382Z,91.53
2022-09-15T06:19:43.368Z,90.10
2022-09-15T06:22:46.032Z,88.61
2022-09-15T06:25:48.249Z,87.07
2022-09-15T06:28:58.479Z,86.59
2022-09-15T06:32:02.947Z,85.87
2022-09-15T06:35:08.703Z,85.83
2022-09-15T06:38:11.699Z,85.20
2022-09-15T06:41:14.340Z,85.23
2022-09-15T06:44:16.365Z,84.17
2022-09-15T06:47:18.585Z,85.25
2022-09-15T06:50:21.805Z,82.78
2022-09-15T06:53:24.058Z,81.49
2022-09-15T06:56:26.165Z,82.47
2022-09-15T06:59:28.405Z,82.55
2022-09-15T07:02:37.280Z,80.38
2022-09-15T07:05:40.907Z,77.77
2022-09-15T07:08:43.344Z,76.53
2022-09-15T07:11:45.860Z,75.76
2022-09-15T07:14:48.257Z,72.72
2022-09-15T07:17:50.506Z,74.07
2022-09-15T07:20:53.976Z,73.86
2022-09-15T07:23:57.755Z,74.63
2022-09-15T07:27:00.938Z,73.12
2022-09-15T07:30:04.138Z,72.68
2022-09-15T07:33:07.096Z,71.61
2022-09-15T07:36:10.308Z,69.49
2022-09-15T07:39:12.376Z,69.98
2022-09-15T07:42:15.512Z,70.97
2022-09-15T07:45:17.774Z,67.56
2022-09-15T07:48:23.246Z,64.84
2022-09-15T07:51:28.481Z,66.49
2022-09-15T07:54:30.704Z,64.62
2022-09-15T07:57:32.768Z,62.99
2022-09-15T08:00:35.292Z,61.51
2022-09-15T08:03:51.893Z,61.39
2022-09-15T08:06:54.421Z,61.10
2022-09-15T08:09:56.551Z,59.97
2022-09-15T08:12:59.739Z,60.48
2022-09-15T08:16:08.623Z,59.09
2022-09-15T08:19:12.219Z,57.41
2022-09-15T08:22:14.288Z,56.85
2022-09-15T08:25:16.645Z,59.48
2022-09-15T08:28:19.054Z,56.07
2022-09-15T08:31:24.246Z,52.84
2022-09-15T08:34:27.645Z,54.34
2022-09-15T08:37:29.842Z,53.83
2022-09-15T08:40:36.060Z,53.80
2022-09-15T08:43:44.906Z,53.97
2022-09-15T08:47:21.122Z,53.04
2022-09-15T08:50:34.291Z,51.74
2022-09-15T08:53:40.832Z,50.85
2022-09-15T08:56:43.893Z,51.10
2022-09-15T08:59:46.482Z,49.74
2022-09-15T09:03:26.518Z,48.06
2022-09-15T09:06:41.401Z,50.41
2022-09-15T09:10:02.241Z,48.58
2022-09-15T09:13:17.287Z,47.33
2022-09-15T09:16:43.819Z,46.96
2022-09-15T09:19:58.032Z,46.92
2022-09-15T09:23:02.550Z,48.61
2022-09-15T09:26:09.908Z,49.40
2022-09-15T09:29:19.870Z,47.19
2022-09-15T09:32:25.255Z,49.34
2022-09-15T09:35:47.253Z,48.91
2022-09-15T09:38:50.080Z,48.23
2022-09-15T09:41:52.428Z,50.03
2022-09-15T09:44:54.457Z,48.96
2022-09-15T09:48:03.051Z,48.51
2022-09-15T09:51:05.188Z,48.54
2022-09-15T09:54:16.105Z,48.94
2022-09-15T09:57:28.118Z,50.96
2022-09-15T10:00:38.623Z,49.42
2022-09-15T10:03:41.939Z,49.08
2022-09-15T10:06:44.783Z,49.43
2022-09-15T10:09:52.968Z,49.05
2022-09-15T10:12:56.646Z,48.25
2022-09-15T10:16:01.434Z,48.51
2022-09-15T10:19:03.841Z,49.38
2022-09-15T10:22:06.014Z,50.34
2022-09-15T10:25:20.444Z,49.50
2022-09-15T10:28:25.751Z,50.30
2022-09-15T10:31:31.147Z,50.41
2022-09-15T10:34:33.234Z,51.88
2022-09-15T10:37:44.220Z,50.31
2022-09-15T10:41:04.523Z,50.99
2022-09-15T10:44:27.770Z,52.12
2022-09-15T10:47:41.617Z,52.67
2022-09-15T10:51:26.942Z,51.03
2022-09-15T10:54:35.090Z,52.44
2022-09-15T10:57:55.607Z,54.24
2022-09-15T11:01:00.560Z,51.35
2022-09-15T11:04:21.157Z,51.06
2022-09-15T11:07:46.994Z,48.07
2022-09-15T11:11:14.036Z,49.10
2022-09-15T11:14:34.981Z,50.41
2022-09-15T11:18:14.556Z,49.43
2022-09-15T11:21:32.263Z,51.11
2022-09-15T11:25:12.665Z,50.86
2022-09-15T11:29:03.473Z,50.50
2022-09-15T11:32:27.763Z,47.65
2022-09-15T11:35:51.872Z,48.57
2022-09-15T11:39:19.504Z,49.15
2022-09-15T11:42:32.233Z,50.66
2022-09-15T11:45:39.935Z,50.75
2022-09-15T11:48:47.096Z,51.68
2022-09-15T11:51:54.713Z,51.65
2022-09-15T11:55:06.873Z,48.65
2022-09-15T11:58:21.019Z,49.43
2022-09-15T12:01:27.482Z,46.84
2022-09-15T12:04:32.701Z,46.83
2022-09-15T12:07:43.746Z,46.29
2022-09-15T12:10:50.081Z,44.85
2022-09-15T12:13:53.042Z,43.54
2022-09-15T12:16:56.137Z,45.15
2022-09-15T12:20:13.012Z,45.96
2022-09-15T12:23:41.066Z,44.91
2022-09-15T12:26:46.413Z,46.02
2022-09-15T12:29:53.868Z,47.07
2022-09-15T12:32:56.804Z,48.30
2022-09-15T12:36:37.620Z,48.36
2022-09-15T12:39:43.153Z,49.51
2022-09-15T12:42:46.093Z,49.12
2022-09-15T12:46:01.767Z,49.67
2022-09-15T12:49:04.357Z,50.31
2022-09-15T12:52:07.881Z,50.07
2022-09-15T12:55:19.128Z,49.15
2022-09-15T12:58:36.983Z,50.01
2022-09-15T13:01:49.098Z,48.83
2022-09-15T13:04:53.882Z,48.77
2022-09-15T13:07:57.791Z,49.88
2022-09-15T13:11:02.129Z,50.38
2022-09-15T13:14:04.466Z,50.50
2022-09-15T13:17:25.521Z,50.29
2022-09-15T13:20:32.195Z,50.70
2022-09-15T13:23:38.505Z,51.92
2022-09-15T13:26:40.977Z,52.66
2022-09-15T13:30:31.085Z,51.28
2022-09-15T13:40:58.188Z,51.53
2022-09-15T13:44:26.351Z,52.87
2022-09-15T13:48:07.307Z,52.60
2022-09-15T13:51:19.631Z,54.10
2022-09-15T13:54:22.068Z,54.78
2022-09-15T13:58:55.169Z,53.86
2022-09-15T14:01:02.099Z,54.46
2022-09-15T14:04:16.648Z,55.12
2022-09-15T14:07:23.369Z,53.12
2022-09-15T14:10:27.967Z,52.11
2022-09-15T14:13:30.740Z,52.49
2022-09-15T14:16:35.852Z,52.29
2022-09-15T14:19:39.722Z,52.97
2022-09-15T14:22:41.863Z,52.17
2022-09-15T14:25:45.863Z,52.06
2022-09-15T14:29:07.127Z,52.90
2022-09-15T14:32:14.950Z,52.39
2022-09-15T14:35:20.180Z,53.37
2022-09-15T14:38:24.867Z,53.25
2022-09-15T14:41:32.503Z,53.23
2022-09-15T14:48:08.507Z,53.24
2022-09-15T14:51:24.447Z,53.95
2022-09-15T14:54:29.996Z,54.31
2022-09-15T14:57:36.783Z,55.22
2022-09-15T15:01:09.762Z,55.48
2022-09-15T15:04:33.425Z,55.29
2022-09-15T15:07:37.645Z,55.78
2022-09-15T15:10:40.617Z,56.08
2022-09-15T15:13:46.459Z,56.09
2022-09-15T15:16:59.835Z,56.82
2022-09-15T15:20:10.832Z,55.97
2022-09-15T15:23:17.603Z,56.02
2022-09-15T15:26:28.317Z,56.42
2022-09-15T15:29:44.583Z,56.26
2022-09-15T15:32:47.353Z,56.93
2022-09-15T15:36:04.873Z,57.04
2022-09-15T15:39:08.078Z,56.78
2022-09-15T15:42:15.256Z,57.08
2022-09-15T15:45:26.266Z,56.58
2022-09-15T15:48:37.906Z,57.26
2022-09-15T15:51:41.174Z,57.51
2022-09-15T15:54:43.649Z,57.77
2022-09-15T15:57:48.796Z,57.62
2022-09-15T16:00:53.352Z,57.22
2022-09-15T16:03:55.522Z,57.60
2022-09-15T16:06:57.796Z,57.13
2022-09-15T16:10:00.375Z,56.83
2022-09-15T16:13:02.701Z,57.17
2022-09-15T16:16:14.427Z,57.83
2022-09-15T16:19:16.809Z,57.67
2022-09-15T16:22:23.220Z,57.63
2022-09-15T16:25:44.049Z,57.84
2022-09-15T16:28:46.363Z,58.49
2022-09-15T16:31:49.038Z,58.70
2022-09-15T16:34:53.865Z,59.00
2022-09-15T16:37:56.187Z,59.09
2022-09-15T16:40:58.225Z,59.14
2022-09-15T16:44:00.654Z,59.46
2022-09-15T16:47:02.825Z,59.92
2022-09-15T16:50:05.663Z,60.13
2022-09-15T16:53:14.858Z,60.22
2022-09-15T16:56:17.811Z,60.29
2022-09-15T16:59:20.300Z,60.53
2022-09-15T17:02:22.893Z,60.78
2022-09-15T17:05:48.555Z,60.66
2022-09-15T17:08:52.085Z,60.90
2022-09-15T17:11:55.154Z,60.67
2022-09-15T17:14:58.255Z,61.21
2022-09-15T17:18:00.750Z,61.77
2022-09-15T17:21:03.372Z,62.07
2022-09-15T17:24:05.766Z,62.29
2022-09-15T17:27:08.089Z,62.88
2022-09-15T17:30:13.232Z,62.97
2022-09-15T17:33:16.547Z,63.41
2022-09-15T17:36:18.859Z,63.47
2022-09-15T17:39:21.229Z,63.68
2022-09-15T17:42:23.455Z,63.75
2022-09-15T17:45:30.217Z,64.27
2022-09-15T17:48:32.471Z,65.53
2022-09-15T17:51:35.381Z,64.97
2022-09-15T17:54:37.685Z,65.85
2022-09-15T17:57:40.489Z,65.98
2022-09-15T18:00:43.869Z,65.59
2022-09-15T18:03:46.850Z,65.99
2022-09-15T18:06:49.562Z,65.45
2022-09-15T18:09:51.989Z,66.36
2022-09-15T18:12:55.750Z,66.89
2022-09-15T18:16:04.839Z,67.20
2022-09-15T18:19:07.954Z,67.51
2022-09-15T18:22:11.338Z,67.46
2022-09-15T18:25:34.638Z,67.42
2022-09-15T18:28:37.037Z,68.14
2022-09-15T18:31:39.299Z,68.25
2022-09-15T18:34:41.643Z,68.83
2022-09-15T18:37:44.786Z,68.43
2022-09-15T18:40:55.894Z,68.64
2022-09-15T18:43:58.785Z,68.86
2022-09-15T18:47:01.293Z,69.53
2022-09-15T18:50:06.544Z,68.91
2022-09-15T18:53:09.555Z,69.08
2022-09-15T18:56:13.232Z,69.25
2022-09-15T18:59:17.755Z,69.25
2022-09-15T19:02:21.328Z,69.18
2022-09-15T19:05:24.179Z,69.58
2022-09-15T19:08:26.286Z,69.76
2022-09-15T19:11:29.435Z,69.90
2022-09-15T19:14:31.815Z,69.61
2022-09-15T19:17:34.189Z,69.91
2022-09-15T19:20:36.252Z,69.97
2022-09-15T19:23:39.361Z,70.46
2022-09-15T19:26:42.455Z,70.42
2022-09-15T19:29:44.948Z,70.70
2022-09-15T19:32:46.958Z,71.21
2022-09-15T19:35:56.306Z,70.97
2022-09-15T19:39:07.512Z,71.21
2022-09-15T19:42:10.888Z,71.47
2022-09-15T19:45:13.528Z,71.57
2022-09-15T19:48:15.888Z,71.10
2022-09-15T19:51:18.365Z,71.10
2022-09-15T19:54:24.112Z,71.95
2022-09-15T19:57:27.098Z,72.45
2022-09-15T20:00:29.681Z,72.07
2022-09-15T20:03:32.127Z,72.54
2022-09-15T20:06:35.664Z,71.75
2022-09-15T20:09:37.919Z,72.32
2022-09-15T20:12:40.393Z,72.12
2022-09-15T20:15:42.817Z,72.35
2022-09-15T20:18:48.146Z,72.33
2022-09-15T20:21:51.462Z,72.49
2022-09-15T20:24:56.278Z,71.90
2022-09-15T20:27:58.286Z,73.20
2022-09-15T20:31:26.992Z,72.78
2022-09-15T20:34:29.180Z,72.17
2022-09-15T20:37:36.693Z,72.51
2022-09-15T20:40:39.783Z,72.25
2022-09-15T20:43:42.559Z,72.26
2022-09-15T20:46:44.741Z,72.27
2022-09-15T20:49:47.201Z,71.64
2022-09-15T20:52:50.001Z,72.24
2022-09-15T20:55:52.360Z,71.58
2022-09-15T20:58:56.780Z,71.70
2022-09-15T21:01:59.514Z,71.44
2022-09-15T21:05:01.664Z,71.69
2022-09-15T21:08:03.974Z,71.60
2022-09-15T21:11:09.855Z,70.86
2022-09-15T21:14:14.010Z,72.08
2022-09-15T21:17:16.700Z,71.95
2022-09-15T21:20:19.039Z,70.71
2022-09-15T21:23:21.166Z,71.45
2022-09-15T21:26:25.560Z,72.11
2022-09-15T21:29:28.664Z,71.91
2022-09-15T21:32:33.137Z,72.27
2022-09-15T21:35:35.165Z,70.85
2022-09-15T21:38:39.004Z,71.56
2022-09-15T21:41:40.999Z,71.34
2022-09-15T21:44:43.275Z,70.76
2022-09-15T21:47:45.317Z,71.56
2022-09-15T21:50:52.160Z,70.59
2022-09-15T21:53:56.165Z,72.24
2022-09-15T21:56:58.504Z,71.31
2022-09-15T22:00:00.609Z,70.42
2022-09-15T22:03:02.867Z,71.54
2022-09-15T22:06:04.936Z,70.73
2022-09-15T22:09:21.201Z,72.22
2022-09-15T22:12:23.233Z,72.32
2022-09-15T22:15:25.909Z,73.12
2022-09-15T22:18:28.105Z,73.40
2022-09-15T22:21:36.868Z,74.26
2022-09-15T22:24:39.486Z,72.39
2022-09-15T22:27:42.598Z,73.52
2022-09-15T22:30:44.679Z,72.91
2022-09-15T22:33:47.541Z,73.07
2022-09-15T22:36:49.662Z,73.06
2022-09-15T22:39:59.594Z,72.91
2022-09-15T22:43:01.855Z,72.30
2022-09-15T22:46:05.123Z,72.55
2022-09-15T22:49:07.344Z,74.58
2022-09-15T22:52:09.648Z,73.74
2022-09-15T22:55:11.711Z,75.71
2022-09-15T22:58:14.041Z,76.22
2022-09-15T23:01:19.168Z,75.37
2022-09-15T23:04:21.645Z,73.68
2022-09-15T23:07:23.868Z,79.62
2022-09-15T23:10:26.743Z,76.76
2022-09-15T23:13:28.743Z,77.15
2022-09-15T23:16:31.384Z,77.46
2022-09-15T23:19:33.846Z,78.46
2022-09-15T23:22:36.112Z,79.27
2022-09-15T23:25:38.067Z,81.83
2022-09-15T23:28:40.332Z,84.33
2022-09-15T23:31:42.427Z,82.46
2022-09-15T23:34:44.710Z,84.73
2022-09-15T23:37:46.724Z,84.57
2022-09-15T23:40:50.426Z,86.46
2022-09-15T23:43:52.530Z,86.89
2022-09-15T23:46:54.813Z,87.92
2022-09-15T23:49:56.977Z,89.14
2022-09-15T23:52:59.295Z,88.43
2022-09-15T23:56:01.750Z,88.75
2022-09-15T23:59:04.070Z,88.36
